createdAt,value
2017-01-20T00:00:23.847Z,0
2017-01-20T00:01:34.579Z,0
2017-01-20T00:02:45.324Z,0
2017-01-20T00:03:56.068Z,0
2017-01-20T00:05:06.798Z,0
2017-01-20T00:06:17.171Z,0
2017-01-20T00:07:26.736Z,0
2017-01-20T00:08:37.072Z,0
2017-01-20T00:09:47.025Z,0
2017-01-20T00:10:57.796Z,0
2017-01-20T00:12:08.138Z,0
2017-01-20T00:13:18.900Z,0
2017-01-20T00:14:29.251Z,0
2017-01-20T00:15:39.204Z,0
2017-01-20T00:16:49.566Z,0
2017-01-20T00:18:00.321Z,0
2017-01-20T00:19:10.668Z,0
2017-01-20T00:20:21.015Z,0
2017-01-20T00:21:31.757Z,0
2017-01-20T00:22:42.109Z,0
2017-01-20T00:23:52.433Z,0
2017-01-20T00:25:03.172Z,0
2017-01-20T00:26:13.540Z,0
2017-01-20T00:27:23.880Z,0
2017-01-20T00:28:34.627Z,0
2017-01-20T00:29:44.963Z,0
2017-01-20T00:30:54.910Z,0
2017-01-20T00:32:04.858Z,0
2017-01-20T00:33:14.834Z,0
2017-01-20T00:34:25.180Z,0
2017-01-20T00:35:35.518Z,0
2017-01-20T00:36:45.458Z,0
2017-01-20T00:37:55.786Z,0
2017-01-20T00:39:06.132Z,0
2017-01-20T00:40:16.504Z,0
2017-01-20T00:41:26.452Z,0
2017-01-20T00:42:36.793Z,0
2017-01-20T00:43:47.134Z,0
2017-01-20T00:44:57.465Z,0
2017-01-20T00:46:08.204Z,0
2017-01-20T00:47:18.554Z,0
2017-01-20T00:48:29.288Z,0
2017-01-20T00:49:40.009Z,0
2017-01-20T00:50:50.775Z,0
2017-01-20T00:52:01.107Z,0
2017-01-20T00:53:10.678Z,0
2017-01-20T00:54:21.021Z,0
2017-01-20T00:55:30.982Z,0
2017-01-20T00:56:41.719Z,0
2017-01-20T00:57:52.045Z,0
2017-01-20T00:59:02.392Z,0
2017-01-20T01:00:13.168Z,0
2017-01-20T01:01:23.515Z,0
2017-01-20T01:02:34.262Z,0
2017-01-20T01:03:44.194Z,0
2017-01-20T01:04:54.133Z,0
2017-01-20T01:06:04.858Z,0
2017-01-20T01:07:15.190Z,0
2017-01-20T01:08:25.560Z,0
2017-01-20T01:09:36.285Z,0
2017-01-20T01:10:46.634Z,0
2017-01-20T01:11:57.365Z,0
2017-01-20T01:13:08.123Z,0
2017-01-20T01:14:18.855Z,0
2017-01-20T01:15:29.599Z,0
2017-01-20T01:16:39.551Z,0
2017-01-20T01:17:49.885Z,0
2017-01-20T01:19:00.220Z,0
2017-01-20T01:20:10.962Z,0
2017-01-20T01:21:21.302Z,0
2017-01-20T01:22:31.639Z,0
2017-01-20T01:23:41.976Z,0
2017-01-20T01:24:52.316Z,0
2017-01-20T01:26:02.298Z,0
2017-01-20T01:27:12.652Z,0
2017-01-20T01:28:23.001Z,0
2017-01-20T01:29:33.730Z,0
2017-01-20T01:30:44.470Z,0
2017-01-20T01:31:55.227Z,0
2017-01-20T01:33:05.963Z,0
2017-01-20T01:34:16.702Z,0
2017-01-20T01:35:27.448Z,0
2017-01-20T01:36:37.779Z,0
2017-01-20T01:37:47.726Z,0
2017-01-20T01:38:58.472Z,0
2017-01-20T01:40:09.219Z,0
2017-01-20T01:41:19.175Z,0
2017-01-20T01:42:29.513Z,0
2017-01-20T01:43:39.470Z,0
2017-01-20T01:44:49.797Z,0
2017-01-20T01:46:00.534Z,0
2017-01-20T01:47:10.879Z,0
2017-01-20T01:48:20.820Z,0
2017-01-20T01:49:31.150Z,0
2017-01-20T01:50:41.106Z,0
2017-01-20T01:51:51.450Z,0
2017-01-20T01:53:01.392Z,0
2017-01-20T01:54:11.723Z,0
2017-01-20T01:55:22.062Z,0
2017-01-20T01:56:32.804Z,0
2017-01-20T01:57:43.139Z,0
2017-01-20T01:58:53.885Z,0
2017-01-20T02:00:03.833Z,0
2017-01-20T02:01:14.190Z,0
2017-01-20T02:02:24.912Z,0
2017-01-20T02:03:34.474Z,0
2017-01-20T02:04:44.443Z,0
2017-01-20T02:05:55.181Z,0
2017-01-20T02:07:05.137Z,0
2017-01-20T02:08:15.486Z,0
2017-01-20T02:09:25.811Z,0
2017-01-20T02:10:36.542Z,0
2017-01-20T02:11:46.885Z,0
2017-01-20T02:12:57.258Z,0
2017-01-20T02:14:07.598Z,0
2017-01-20T02:15:18.339Z,0
2017-01-20T02:16:29.067Z,0
2017-01-20T02:17:39.019Z,0
2017-01-20T02:18:49.361Z,0
2017-01-20T02:20:00.101Z,0
2017-01-20T02:21:10.839Z,0
2017-01-20T02:22:21.216Z,0
2017-01-20T02:23:31.559Z,0
2017-01-20T02:24:42.544Z,0
2017-01-20T02:25:52.875Z,0
2017-01-20T02:27:03.218Z,0
2017-01-20T02:28:13.994Z,0
2017-01-20T02:29:24.731Z,0
2017-01-20T02:30:35.074Z,0
2017-01-20T02:31:45.809Z,0
2017-01-20T02:32:56.546Z,0
2017-01-20T02:34:06.901Z,0
2017-01-20T02:35:17.635Z,0
2017-01-20T02:36:27.981Z,0
2017-01-20T02:37:38.320Z,0
2017-01-20T02:38:49.065Z,0
2017-01-20T02:39:59.006Z,0
2017-01-20T02:41:09.354Z,0
2017-01-20T02:42:19.684Z,0
2017-01-20T02:43:30.016Z,0
2017-01-20T02:44:40.362Z,0
2017-01-20T02:45:50.700Z,0
2017-01-20T02:47:01.441Z,0
2017-01-20T02:48:12.182Z,0
2017-01-20T02:49:22.514Z,0
2017-01-20T02:50:33.260Z,0
2017-01-20T02:51:43.997Z,0
2017-01-20T02:52:53.542Z,0
2017-01-20T02:54:03.885Z,0
2017-01-20T02:55:14.634Z,0
2017-01-20T02:56:25.365Z,0
2017-01-20T02:57:36.081Z,0
2017-01-20T02:58:46.428Z,0
2017-01-20T02:59:56.773Z,0
2017-01-20T03:01:07.111Z,0
2017-01-20T03:33:05.198Z,0
2017-01-20T03:34:15.539Z,0
2017-01-20T03:35:26.256Z,0
2017-01-20T03:36:36.997Z,0
2017-01-20T03:37:47.740Z,0
2017-01-20T03:38:58.482Z,0
2017-01-20T03:40:09.208Z,0
2017-01-20T03:41:19.939Z,0
2017-01-20T03:42:30.277Z,0
2017-01-20T03:43:41.014Z,0
2017-01-20T03:44:51.748Z,0
2017-01-20T03:46:01.693Z,0
2017-01-20T03:47:12.438Z,0
2017-01-20T03:48:22.785Z,0
2017-01-20T03:49:33.514Z,0
2017-01-20T03:50:44.240Z,0
2017-01-20T03:51:54.583Z,0
2017-01-20T03:53:04.928Z,0
2017-01-20T03:54:15.656Z,0
2017-01-20T03:55:26.398Z,0
2017-01-20T03:56:36.358Z,0
2017-01-20T03:57:47.081Z,0
2017-01-20T03:58:57.047Z,0
2017-01-20T04:00:06.984Z,0
2017-01-20T04:01:17.705Z,0
2017-01-20T04:02:28.427Z,0
2017-01-20T04:03:39.164Z,0
2017-01-20T04:04:49.514Z,0
2017-01-20T04:06:00.273Z,0
2017-01-20T04:07:10.606Z,0
2017-01-20T04:08:20.945Z,0
2017-01-20T04:09:30.504Z,0
2017-01-20T04:10:40.058Z,0
2017-01-20T04:11:50.797Z,0
2017-01-20T04:13:01.522Z,0
2017-01-20T04:14:12.259Z,0
2017-01-20T04:15:22.600Z,0
2017-01-20T04:16:33.341Z,0
2017-01-20T04:17:43.709Z,0
2017-01-20T04:18:54.460Z,0
2017-01-20T04:20:05.211Z,0
2017-01-20T04:21:15.157Z,0
2017-01-20T04:22:25.481Z,0
2017-01-20T04:23:35.431Z,0
2017-01-20T04:24:45.768Z,0
2017-01-20T04:25:56.134Z,0
2017-01-20T04:27:06.881Z,0
2017-01-20T04:28:17.238Z,0
2017-01-20T04:29:27.970Z,0
2017-01-20T04:30:38.710Z,0
2017-01-20T04:31:49.068Z,0
2017-01-20T04:32:58.609Z,0
2017-01-20T04:34:09.332Z,0
2017-01-20T04:35:20.078Z,0
2017-01-20T04:36:30.408Z,0
2017-01-20T04:37:40.739Z,0
2017-01-20T04:38:51.477Z,0
2017-01-20T04:40:01.836Z,0
2017-01-20T04:41:11.790Z,0
2017-01-20T04:42:22.553Z,0
2017-01-20T04:43:33.294Z,0
2017-01-20T04:44:43.625Z,0
2017-01-20T04:45:54.362Z,0
2017-01-20T04:47:04.309Z,0
2017-01-20T04:48:14.652Z,0
2017-01-20T04:49:24.983Z,0
2017-01-20T04:50:35.721Z,0
2017-01-20T04:51:46.052Z,0
2017-01-20T04:52:55.997Z,0
2017-01-20T04:54:06.335Z,0
2017-01-20T04:55:17.075Z,0
2017-01-20T04:56:27.809Z,0
2017-01-20T04:57:38.141Z,0
2017-01-20T04:58:48.510Z,0
2017-01-20T04:59:59.244Z,0
2017-01-20T05:01:09.187Z,0
2017-01-20T05:02:19.943Z,0
2017-01-20T05:03:30.668Z,0
2017-01-20T05:04:41.406Z,0
2017-01-20T05:05:51.787Z,0
2017-01-20T05:07:02.115Z,0
2017-01-20T05:08:12.452Z,0
2017-01-20T05:09:22.809Z,0
2017-01-20T05:10:33.541Z,0
2017-01-20T05:11:44.271Z,0
2017-01-20T05:12:54.609Z,0
2017-01-20T05:14:04.564Z,0
2017-01-20T05:15:15.312Z,0
2017-01-20T05:16:26.048Z,0
2017-01-20T05:17:36.396Z,0
2017-01-20T05:18:46.739Z,0
2017-01-20T05:19:56.719Z,0
2017-01-20T05:21:07.112Z,0
2017-01-20T05:22:17.857Z,0
2017-01-20T05:23:28.185Z,0
2017-01-20T05:24:38.929Z,0
2017-01-20T05:25:48.862Z,0
2017-01-20T05:26:58.810Z,0
2017-01-20T05:28:09.180Z,0
2017-01-20T05:29:19.913Z,0
2017-01-20T05:30:30.246Z,0
2017-01-20T05:31:40.979Z,0
2017-01-20T05:32:51.743Z,0
2017-01-20T05:34:02.090Z,0
2017-01-20T05:35:12.822Z,0
2017-01-20T05:36:23.199Z,0
2017-01-20T05:37:33.932Z,0
2017-01-20T05:38:44.662Z,0
2017-01-20T05:39:55.400Z,0
2017-01-20T05:41:05.743Z,0
2017-01-20T05:42:16.484Z,0
2017-01-20T05:43:26.818Z,0
2017-01-20T05:44:37.567Z,0
2017-01-20T05:45:47.908Z,0
2017-01-20T05:46:57.864Z,0
2017-01-20T05:48:07.408Z,0
2017-01-20T05:49:18.141Z,0
2017-01-20T05:50:28.085Z,0
2017-01-20T05:51:38.041Z,0
2017-01-20T05:52:48.798Z,0
2017-01-20T05:53:58.765Z,0
2017-01-20T05:55:09.500Z,0
2017-01-20T05:56:19.844Z,0
2017-01-20T05:57:30.586Z,0
2017-01-20T05:58:40.920Z,0
2017-01-20T05:59:50.921Z,0
2017-01-20T06:01:01.647Z,0
2017-01-20T06:02:12.389Z,0
2017-01-20T06:03:22.355Z,0
2017-01-20T06:04:32.687Z,0
2017-01-20T06:05:43.424Z,0
2017-01-20T06:06:54.155Z,0
2017-01-20T06:08:04.491Z,0
2017-01-20T06:09:14.829Z,0
2017-01-20T06:10:25.560Z,0
2017-01-20T06:11:35.906Z,0
2017-01-20T06:12:46.241Z,0
2017-01-20T06:13:56.970Z,0
2017-01-20T06:15:07.691Z,0
2017-01-20T06:16:17.649Z,0
2017-01-20T06:17:27.996Z,0
2017-01-20T06:18:38.726Z,0
2017-01-20T06:19:49.064Z,0
2017-01-20T06:20:59.401Z,0
2017-01-20T06:22:10.128Z,0
2017-01-20T06:23:20.503Z,0
2017-01-20T06:24:30.826Z,0
2017-01-20T06:25:41.553Z,0
2017-01-20T06:26:51.499Z,0
2017-01-20T06:28:02.220Z,0
2017-01-20T06:29:12.167Z,0
2017-01-20T06:30:22.505Z,0
2017-01-20T06:31:32.452Z,0
2017-01-20T06:32:42.403Z,0
2017-01-20T06:33:53.131Z,0
2017-01-20T06:35:03.472Z,5
2017-01-20T06:36:13.808Z,5
2017-01-20T06:37:24.143Z,5
2017-01-20T06:38:34.490Z,5
2017-01-20T06:39:44.854Z,5
2017-01-20T06:40:54.804Z,5
2017-01-20T06:42:05.147Z,5
2017-01-20T06:43:15.103Z,5
2017-01-20T06:44:25.858Z,5
2017-01-20T06:45:36.588Z,10
2017-01-20T06:46:47.344Z,10
2017-01-20T06:47:58.144Z,10
2017-01-20T06:49:08.881Z,10
2017-01-20T06:50:19.222Z,10
2017-01-20T06:51:29.960Z,15
2017-01-20T06:52:40.312Z,15
2017-01-20T06:53:51.038Z,15
2017-01-20T06:55:01.389Z,15
2017-01-20T06:56:11.737Z,15
2017-01-20T06:57:21.683Z,15
2017-01-20T06:58:32.007Z,20
2017-01-20T06:59:42.743Z,20
2017-01-20T07:00:53.109Z,20
2017-01-20T07:02:03.455Z,20
2017-01-20T07:03:13.803Z,20
2017-01-20T07:04:24.143Z,25
2017-01-20T07:05:34.478Z,25
2017-01-20T07:06:44.823Z,25
2017-01-20T07:07:54.760Z,25
2017-01-20T07:09:05.091Z,30
2017-01-20T07:10:15.892Z,30
2017-01-20T07:11:26.233Z,30
2017-01-20T07:12:36.974Z,30
2017-01-20T07:13:46.933Z,30
2017-01-20T07:14:57.308Z,35
2017-01-20T07:16:07.648Z,35
2017-01-20T07:17:18.383Z,35
2017-01-20T07:18:27.916Z,35
2017-01-20T07:19:38.286Z,40
2017-01-20T07:20:47.842Z,40
2017-01-20T07:21:58.595Z,40
2017-01-20T07:23:09.362Z,40
2017-01-20T07:24:20.089Z,45
2017-01-20T07:25:30.815Z,45
2017-01-20T07:26:41.158Z,45
2017-01-20T07:27:51.889Z,45
2017-01-20T07:29:01.845Z,45
2017-01-20T07:30:12.183Z,45
2017-01-20T07:31:22.919Z,45
2017-01-20T07:32:33.650Z,45
2017-01-20T07:33:44.372Z,45
2017-01-20T07:34:54.759Z,50
2017-01-20T07:36:05.106Z,50
2017-01-20T07:37:15.462Z,50
2017-01-20T07:38:25.819Z,50
2017-01-20T07:39:36.161Z,55
2017-01-20T07:40:46.889Z,60
2017-01-20T07:41:56.849Z,55
2017-01-20T07:43:07.191Z,55
2017-01-20T07:44:17.937Z,60
2017-01-20T07:45:28.266Z,60
2017-01-20T07:46:38.602Z,60
2017-01-20T07:47:48.934Z,60
2017-01-20T07:48:58.889Z,65
2017-01-20T07:50:09.226Z,65
2017-01-20T07:51:19.569Z,65
2017-01-20T07:52:30.305Z,65
2017-01-20T07:53:41.038Z,65
2017-01-20T07:54:51.383Z,70
2017-01-20T07:56:01.325Z,70
2017-01-20T07:57:11.289Z,70
2017-01-20T07:58:21.638Z,70
2017-01-20T07:59:31.985Z,75
2017-01-20T08:00:42.314Z,75
2017-01-20T08:01:52.652Z,75
2017-01-20T08:03:03.389Z,75
2017-01-20T08:04:14.126Z,75
2017-01-20T08:05:24.089Z,80
2017-01-20T08:06:34.028Z,80
2017-01-20T08:07:44.367Z,80
2017-01-20T08:08:54.742Z,85
2017-01-20T08:10:05.085Z,85
2017-01-20T08:11:15.824Z,85
2017-01-20T08:12:26.161Z,85
2017-01-20T08:13:36.503Z,85
2017-01-20T08:14:46.839Z,85
2017-01-20T08:15:57.581Z,85
2017-01-20T08:17:08.310Z,85
2017-01-20T08:18:18.641Z,85
2017-01-20T08:19:28.589Z,85
2017-01-20T08:20:38.552Z,90
2017-01-20T08:21:48.896Z,90
2017-01-20T08:22:59.635Z,90
2017-01-20T08:24:09.594Z,90
2017-01-20T08:25:19.939Z,90
2017-01-20T08:26:30.669Z,90
2017-01-20T08:27:41.402Z,95
2017-01-20T08:28:51.757Z,95
2017-01-20T08:30:02.131Z,95
2017-01-20T08:31:12.484Z,95
2017-01-20T08:32:23.213Z,100
2017-01-20T08:33:33.168Z,100
2017-01-20T08:34:43.905Z,100
2017-01-20T08:35:54.646Z,100
2017-01-20T08:37:05.410Z,100
2017-01-20T08:38:15.754Z,100
2017-01-20T08:39:26.111Z,105
2017-01-20T08:40:36.842Z,105
2017-01-20T08:41:47.184Z,105
2017-01-20T08:42:57.152Z,105
2017-01-20T08:44:07.922Z,105
2017-01-20T08:45:17.872Z,110
2017-01-20T08:46:28.215Z,115
2017-01-20T08:47:38.967Z,120
2017-01-20T08:48:49.313Z,125
2017-01-20T08:50:00.031Z,125
2017-01-20T08:51:10.403Z,145
2017-01-20T08:52:20.365Z,165
2017-01-20T08:53:31.135Z,175
2017-01-20T08:54:41.883Z,175
2017-01-20T08:55:52.619Z,175
2017-01-20T08:57:02.952Z,175
2017-01-20T08:58:13.303Z,160
2017-01-20T08:59:23.654Z,135
2017-01-20T09:00:34.403Z,130
2017-01-20T09:01:45.148Z,140
2017-01-20T09:02:55.891Z,140
2017-01-20T09:04:06.640Z,140
2017-01-20T09:05:17.387Z,140
2017-01-20T09:06:26.929Z,140
2017-01-20T09:07:37.266Z,130
2017-01-20T09:08:48.020Z,130
2017-01-20T09:09:58.756Z,130
2017-01-20T09:11:09.111Z,130
2017-01-20T09:12:19.833Z,130
2017-01-20T09:13:29.771Z,130
2017-01-20T09:14:40.112Z,130
2017-01-20T09:15:50.044Z,130
2017-01-20T09:17:00.387Z,135
2017-01-20T09:18:11.142Z,135
2017-01-20T09:19:21.091Z,135
2017-01-20T09:20:31.830Z,135
2017-01-20T09:21:42.175Z,135
2017-01-20T09:22:52.518Z,135
2017-01-20T09:24:02.480Z,140
2017-01-20T09:25:12.843Z,140
2017-01-20T09:26:23.174Z,140
2017-01-20T09:27:33.536Z,140
2017-01-20T09:28:44.287Z,140
2017-01-20T09:29:54.240Z,140
2017-01-20T09:31:04.970Z,140
2017-01-20T09:32:14.917Z,140
2017-01-20T09:33:25.290Z,140
2017-01-20T09:34:35.652Z,140
2017-01-20T09:35:45.992Z,140
2017-01-20T09:36:56.373Z,140
2017-01-20T09:38:06.341Z,145
2017-01-20T09:39:17.083Z,145
2017-01-20T09:40:27.460Z,145
2017-01-20T09:41:38.226Z,145
2017-01-20T09:42:48.583Z,145
2017-01-20T09:43:58.919Z,145
2017-01-20T09:45:09.652Z,145
2017-01-20T09:46:20.003Z,145
2017-01-20T09:47:30.743Z,145
2017-01-20T09:48:41.490Z,150
2017-01-20T09:49:51.838Z,145
2017-01-20T09:51:02.590Z,145
2017-01-20T09:52:13.329Z,145
2017-01-20T09:53:22.894Z,145
2017-01-20T09:54:33.242Z,145
2017-01-20T09:55:43.592Z,150
2017-01-20T09:56:53.565Z,150
2017-01-20T09:58:04.312Z,145
2017-01-20T09:59:14.657Z,145
2017-01-20T10:00:25.396Z,145
2017-01-20T10:01:35.363Z,145
2017-01-20T10:02:45.325Z,145
2017-01-20T10:03:55.673Z,150
2017-01-20T10:05:06.009Z,145
2017-01-20T10:06:16.344Z,145
2017-01-20T10:07:26.744Z,150
2017-01-20T10:08:38.662Z,150
2017-01-20T10:09:50.795Z,145
2017-01-20T10:11:01.536Z,145
2017-01-20T10:12:11.479Z,150
2017-01-20T10:13:21.816Z,150
2017-01-20T10:14:31.403Z,150
2017-01-20T10:15:41.741Z,155
2017-01-20T10:16:52.085Z,145
2017-01-20T10:18:03.356Z,155
2017-01-20T10:19:14.104Z,160
2017-01-20T10:20:25.113Z,160
2017-01-20T10:21:35.767Z,160
2017-01-20T10:22:45.748Z,160
2017-01-20T10:23:56.139Z,160
2017-01-20T10:25:06.088Z,160
2017-01-20T10:26:16.443Z,160
2017-01-20T10:27:26.804Z,165
2017-01-20T10:28:37.542Z,165
2017-01-20T10:29:48.293Z,160
2017-01-20T10:30:58.230Z,160
2017-01-20T10:32:08.591Z,165
2017-01-20T10:33:19.348Z,165
2017-01-20T10:34:29.306Z,165
2017-01-20T10:35:39.647Z,165
2017-01-20T10:36:49.990Z,165
2017-01-20T10:38:00.335Z,165
2017-01-20T10:39:09.903Z,170
2017-01-20T10:40:20.675Z,170
2017-01-20T10:41:31.424Z,165
2017-01-20T10:42:42.187Z,165
2017-01-20T10:43:52.917Z,170
2017-01-20T10:45:02.862Z,170
2017-01-20T10:46:13.222Z,170
2017-01-20T10:47:23.958Z,170
2017-01-20T10:48:34.715Z,170
2017-01-20T10:49:45.452Z,170
2017-01-20T10:50:55.399Z,170
2017-01-20T10:52:05.363Z,170
2017-01-20T10:53:15.718Z,165
2017-01-20T10:54:26.056Z,165
2017-01-20T10:55:36.405Z,170
2017-01-20T10:56:47.152Z,170
2017-01-20T10:57:57.896Z,170
2017-01-20T10:59:08.646Z,165
2017-01-20T11:00:18.999Z,165
2017-01-20T11:01:29.351Z,165
2017-01-20T11:02:39.696Z,165
2017-01-20T11:03:50.040Z,170
2017-01-20T11:05:00.372Z,170
2017-01-20T11:06:11.117Z,170
2017-01-20T11:07:21.456Z,170
2017-01-20T11:08:32.191Z,175
2017-01-20T11:09:42.144Z,175
2017-01-20T11:10:52.904Z,175
2017-01-20T11:12:03.246Z,170
2017-01-20T11:13:13.983Z,170
2017-01-20T11:14:24.721Z,170
2017-01-20T11:15:35.475Z,170
2017-01-20T11:16:46.219Z,175
2017-01-20T11:17:56.971Z,175
2017-01-20T11:19:06.942Z,175
2017-01-20T11:20:17.283Z,180
2017-01-20T11:21:28.025Z,180
2017-01-20T11:22:38.817Z,180
2017-01-20T11:23:49.551Z,180
2017-01-20T11:25:00.289Z,180
2017-01-20T11:26:10.250Z,180
2017-01-20T11:27:21.009Z,180
2017-01-20T11:28:31.766Z,180
2017-01-20T11:29:42.502Z,180
2017-01-20T11:30:52.877Z,180
2017-01-20T11:32:03.226Z,180
2017-01-20T11:33:13.968Z,180
2017-01-20T11:34:24.721Z,180
2017-01-20T11:35:35.065Z,180
2017-01-20T11:36:45.808Z,180
2017-01-20T11:37:56.196Z,180
2017-01-20T11:39:06.941Z,180
2017-01-20T11:40:16.489Z,180
2017-01-20T11:41:27.244Z,175
2017-01-20T11:42:37.617Z,175
2017-01-20T11:43:48.363Z,175
2017-01-20T11:44:59.107Z,175
2017-01-20T11:46:09.449Z,180
2017-01-20T11:47:20.564Z,175
2017-01-20T11:48:31.396Z,175
2017-01-20T11:49:42.228Z,175
2017-01-20T11:50:53.051Z,180
2017-01-20T11:52:03.826Z,180
2017-01-20T11:53:14.621Z,180
2017-01-20T11:54:25.419Z,180
2017-01-20T11:55:36.214Z,180
2017-01-20T11:56:47.018Z,180
2017-01-20T11:57:57.778Z,175
2017-01-20T11:59:08.521Z,175
2017-01-20T12:00:19.294Z,170
2017-01-20T12:01:29.653Z,175
2017-01-20T12:02:40.016Z,175
2017-01-20T12:03:50.382Z,175
2017-01-20T12:05:01.135Z,180
2017-01-20T12:06:11.885Z,170
2017-01-20T12:07:21.853Z,175
2017-01-20T12:08:31.801Z,170
2017-01-20T12:09:42.559Z,175
2017-01-20T12:10:52.914Z,170
2017-01-20T12:12:03.279Z,170
2017-01-20T12:13:13.616Z,170
2017-01-20T12:14:24.378Z,170
2017-01-20T12:15:35.119Z,170
2017-01-20T12:16:45.481Z,170
2017-01-20T12:17:55.846Z,170
2017-01-20T12:19:05.845Z,165
2017-01-20T12:20:16.224Z,165
2017-01-20T12:21:26.579Z,165
2017-01-20T12:22:36.524Z,160
2017-01-20T12:23:46.881Z,160
2017-01-20T12:24:57.237Z,165
2017-01-20T12:26:07.600Z,165
2017-01-20T12:27:17.565Z,170
2017-01-20T12:28:27.528Z,170
2017-01-20T12:29:37.904Z,170
2017-01-20T12:30:48.299Z,170
2017-01-20T12:31:59.058Z,165
2017-01-20T12:33:09.426Z,165
2017-01-20T12:34:19.768Z,165
2017-01-20T12:35:30.534Z,165
2017-01-20T12:36:41.312Z,160
2017-01-20T12:37:52.092Z,160
2017-01-20T12:39:02.845Z,160
2017-01-20T12:40:13.222Z,165
2017-01-20T12:41:23.596Z,160
2017-01-20T12:42:33.949Z,165
2017-01-20T12:43:44.300Z,165
2017-01-20T12:44:54.643Z,165
2017-01-20T12:46:04.986Z,165
2017-01-20T12:47:15.358Z,165
2017-01-20T12:48:25.738Z,165
2017-01-20T12:49:36.084Z,165
2017-01-20T12:50:46.050Z,160
2017-01-20T12:51:56.421Z,160
2017-01-20T12:53:07.170Z,160
2017-01-20T12:54:17.533Z,155
2017-01-20T12:55:27.899Z,155
2017-01-20T12:56:37.855Z,155
2017-01-20T12:57:47.822Z,150
2017-01-20T12:58:58.178Z,150
2017-01-20T13:00:08.145Z,150
2017-01-20T13:01:18.496Z,150
2017-01-20T13:02:29.265Z,145
2017-01-20T13:03:40.007Z,145
2017-01-20T13:04:50.756Z,150
2017-01-20T13:06:01.522Z,145
2017-01-20T13:07:11.471Z,145
2017-01-20T13:08:21.813Z,145
2017-01-20T13:09:32.555Z,145
2017-01-20T13:10:43.341Z,140
2017-01-20T13:11:54.115Z,140
2017-01-20T13:13:04.092Z,145
2017-01-20T13:14:14.875Z,135
2017-01-20T13:15:25.282Z,135
2017-01-20T13:16:36.040Z,135
2017-01-20T13:17:46.381Z,135
2017-01-20T13:18:56.763Z,135
2017-01-20T13:20:07.120Z,135
2017-01-20T13:21:17.879Z,135
2017-01-20T13:22:28.220Z,135
2017-01-20T13:23:38.977Z,130
2017-01-20T13:24:49.729Z,130
2017-01-20T13:26:00.156Z,125
2017-01-20T13:27:10.520Z,125
2017-01-20T13:28:20.880Z,125
2017-01-20T13:29:31.632Z,125
2017-01-20T13:30:42.024Z,125
2017-01-20T13:31:52.368Z,120
2017-01-20T13:33:03.136Z,115
2017-01-20T13:34:13.100Z,115
2017-01-20T13:35:23.073Z,115
2017-01-20T13:36:33.452Z,115
2017-01-20T13:37:44.224Z,115
2017-01-20T13:38:54.586Z,110
2017-01-20T13:40:05.361Z,115
2017-01-20T13:41:15.717Z,110
2017-01-20T13:42:26.473Z,105
2017-01-20T13:43:36.842Z,105
2017-01-20T13:44:47.618Z,105
2017-01-20T13:45:58.011Z,105
2017-01-20T13:47:08.797Z,105
2017-01-20T13:48:19.559Z,100
2017-01-20T13:49:30.336Z,100
2017-01-20T13:50:41.102Z,100
2017-01-20T13:51:51.452Z,100
2017-01-20T13:53:02.201Z,95
2017-01-20T13:54:12.569Z,95
2017-01-20T13:55:23.327Z,95
2017-01-20T13:56:34.104Z,95
2017-01-20T13:57:44.859Z,90
2017-01-20T13:58:55.208Z,90
2017-01-20T14:00:05.961Z,90
2017-01-20T14:01:16.727Z,90
2017-01-20T14:02:26.686Z,85
2017-01-20T14:03:37.045Z,85
2017-01-20T14:04:47.783Z,85
2017-01-20T14:05:58.536Z,80
2017-01-20T14:07:09.290Z,80
2017-01-20T14:08:19.656Z,80
2017-01-20T14:09:28.818Z,80
2017-01-20T14:10:39.185Z,80
2017-01-20T14:11:48.767Z,80
2017-01-20T14:12:59.509Z,75
2017-01-20T14:14:10.277Z,75
2017-01-20T14:15:21.014Z,75
2017-01-20T14:16:31.794Z,75
2017-01-20T14:17:42.541Z,75
2017-01-20T14:18:53.342Z,70
2017-01-20T14:20:03.709Z,70
2017-01-20T14:21:14.079Z,70
2017-01-20T14:22:24.812Z,70
2017-01-20T14:23:35.172Z,65
2017-01-20T14:24:45.296Z,65
2017-01-20T14:25:55.262Z,65
2017-01-20T14:27:05.650Z,65
2017-01-20T14:28:16.381Z,60
2017-01-20T14:29:27.165Z,60
2017-01-20T14:30:37.940Z,60
2017-01-20T14:31:48.706Z,55
2017-01-20T14:32:59.440Z,55
2017-01-20T14:34:09.388Z,55
2017-01-20T14:35:20.187Z,55
2017-01-20T14:36:30.555Z,50
2017-01-20T14:37:41.306Z,50
2017-01-20T14:38:51.661Z,50
2017-01-20T14:40:02.402Z,45
2017-01-20T14:41:13.176Z,45
2017-01-20T14:42:22.750Z,45
2017-01-20T14:43:33.520Z,45
2017-01-20T14:44:43.861Z,45
2017-01-20T14:45:54.214Z,45
2017-01-20T14:47:04.570Z,45
2017-01-20T14:48:14.532Z,40
2017-01-20T14:49:24.900Z,40
2017-01-20T14:50:35.700Z,40
2017-01-20T14:51:46.113Z,35
2017-01-20T14:52:56.463Z,35
2017-01-20T14:54:07.222Z,35
2017-01-20T14:55:17.596Z,35
2017-01-20T14:56:28.343Z,30
2017-01-20T14:57:38.297Z,30
2017-01-20T14:58:49.062Z,30
2017-01-20T14:59:59.462Z,30
2017-01-20T15:01:09.820Z,25
2017-01-20T15:02:20.575Z,25
2017-01-20T15:03:30.534Z,25
2017-01-20T15:04:41.295Z,25
2017-01-20T15:05:52.077Z,25
2017-01-20T15:07:02.470Z,20
2017-01-20T15:08:12.835Z,20
2017-01-20T15:09:23.597Z,20
2017-01-20T15:10:33.955Z,20
2017-01-20T15:11:44.320Z,20
2017-01-20T15:12:54.719Z,15
2017-01-20T15:14:05.475Z,15
2017-01-20T15:15:16.272Z,15
2017-01-20T15:16:26.622Z,15
2017-01-20T15:17:37.369Z,15
2017-01-20T15:18:48.130Z,15
2017-01-20T15:19:58.480Z,10
2017-01-20T15:21:09.248Z,10
2017-01-20T15:22:20.018Z,10
2017-01-20T15:23:30.775Z,10
2017-01-20T15:24:41.150Z,10
2017-01-20T15:25:51.939Z,10
2017-01-20T15:27:02.688Z,5
2017-01-20T15:28:13.435Z,5
2017-01-20T15:29:23.393Z,5
2017-01-20T15:30:34.149Z,5
2017-01-20T15:31:44.900Z,5
2017-01-20T15:32:55.262Z,5
2017-01-20T15:34:06.035Z,5
2017-01-20T15:35:16.816Z,5
2017-01-20T15:36:27.187Z,0
2017-01-20T15:37:37.535Z,0
2017-01-20T15:38:48.305Z,0
2017-01-20T15:39:58.660Z,0
2017-01-20T15:41:09.434Z,0
2017-01-20T15:42:19.418Z,0
2017-01-20T15:43:29.788Z,0
2017-01-20T15:44:40.154Z,0
2017-01-20T15:45:50.519Z,0
2017-01-20T15:47:01.294Z,0
2017-01-20T15:48:11.241Z,0
2017-01-20T15:49:21.990Z,0
2017-01-20T15:50:32.358Z,0
2017-01-20T15:51:42.725Z,0
2017-01-20T15:52:53.079Z,0
2017-01-20T15:54:03.460Z,0
2017-01-20T15:55:14.212Z,0
2017-01-20T15:56:24.958Z,0
2017-01-20T15:57:35.305Z,0
2017-01-20T15:58:46.056Z,0
2017-01-20T15:59:56.815Z,0
2017-01-20T16:01:07.575Z,0
2017-01-20T16:02:18.342Z,0
2017-01-20T16:03:29.079Z,0
2017-01-20T16:04:39.414Z,0
2017-01-20T16:05:49.377Z,0
2017-01-20T16:06:59.343Z,0
2017-01-20T16:08:09.718Z,0
2017-01-20T16:09:20.452Z,0
2017-01-20T16:10:31.190Z,0
2017-01-20T16:11:41.945Z,0
2017-01-20T16:12:52.689Z,0
2017-01-20T16:14:03.432Z,0
2017-01-20T16:15:13.811Z,0
2017-01-20T16:16:24.556Z,0
2017-01-20T16:17:35.313Z,0
2017-01-20T16:18:45.670Z,0
2017-01-20T16:19:55.656Z,0
2017-01-20T16:21:06.019Z,0
2017-01-20T16:22:16.786Z,0
2017-01-20T16:23:27.145Z,0
2017-01-20T16:24:37.900Z,0
2017-01-20T16:25:48.252Z,0
2017-01-20T16:26:59.006Z,0
2017-01-20T16:28:09.773Z,0
2017-01-20T16:29:20.535Z,0
2017-01-20T16:30:30.897Z,0
2017-01-20T16:31:41.659Z,0
2017-01-20T16:32:52.018Z,0
2017-01-20T16:34:02.792Z,0
2017-01-20T16:35:12.763Z,0
2017-01-20T16:36:23.341Z,0
2017-01-20T16:37:33.692Z,0
2017-01-20T16:38:44.441Z,0
2017-01-20T16:39:55.172Z,0
2017-01-20T16:41:05.923Z,0
2017-01-20T16:42:16.277Z,0
2017-01-20T16:43:27.016Z,0
2017-01-20T16:44:37.812Z,0
2017-01-20T16:45:48.560Z,0
2017-01-20T16:46:58.533Z,0
2017-01-20T16:48:08.887Z,0
2017-01-20T16:49:18.871Z,0
2017-01-20T16:50:29.233Z,0
2017-01-20T16:51:39.974Z,0
2017-01-20T16:52:50.321Z,0
2017-01-20T16:54:01.086Z,0
2017-01-20T16:55:11.458Z,0
2017-01-20T16:56:21.826Z,0
2017-01-20T16:57:31.806Z,0
2017-01-20T16:58:42.556Z,0
2017-01-20T16:59:52.911Z,0
2017-01-20T17:01:03.647Z,0
2017-01-20T17:02:13.639Z,0
2017-01-20T17:03:23.996Z,0
2017-01-20T17:04:33.961Z,0
2017-01-20T17:05:44.738Z,0
2017-01-20T17:06:55.516Z,0
2017-01-20T17:08:05.929Z,0
2017-01-20T17:09:16.271Z,0
2017-01-20T17:10:27.027Z,0
2017-01-20T17:11:37.779Z,0
2017-01-20T17:12:48.548Z,0
2017-01-20T17:13:59.322Z,0
2017-01-20T17:15:09.678Z,0
2017-01-20T17:16:20.424Z,0
2017-01-20T17:17:30.788Z,0
2017-01-20T17:18:41.549Z,0
2017-01-20T17:19:52.317Z,0
2017-01-20T17:21:03.076Z,0